sensor_id;sensor_type;location;lat;lon;timestamp;pressure;altitude;pressure_sealevel;temperature;humidity
33280;BME280;20403;43.114;12.434;2022-11-03T00:02:07;99866.41;;;9.67;100.00
33280;BME280;20403;43.114;12.434;2022-11-03T00:04:33;99865.59;;;9.67;100.00
33280;BME280;20403;43.114;12.434;2022-11-03T00:06:58;99863.81;;;9.74;100.00
33280;BME280;20403;43.114;12.434;2022-11-03T00:09:23;99868.81;;;9.69;100.00
33280;BME280;20403;43.114;12.434;2022-11-03T00:11:51;99866.41;;;9.67;100.00
33280;BME280;20403;43.114;12.434;2022-11-03T00:14:16;99864.16;;;9.58;100.00
33280;BME280;20403;43.114;12.434;2022-11-03T00:16:42;99862.81;;;9.68;100.00
33280;BME280;20403;43.114;12.434;2022-11-03T00:19:08;99866.59;;;9.59;100.00
33280;BME280;20403;43.114;12.434;2022-11-03T00:21:34;99865.59;;;9.67;100.00
33280;BME280;20403;43.114;12.434;2022-11-03T00:23:59;99874.38;;;9.53;100.00
33280;BME280;20403;43.114;12.434;2022-11-03T00:26:28;99868.56;;;9.51;100.00
33280;BME280;20403;43.114;12.434;2022-11-03T00:28:54;99875.94;;;9.40;100.00
33280;BME280;20403;43.114;12.434;2022-11-03T00:31:24;99874.75;;;9.50;100.00
33280;BME280;20403;43.114;12.434;2022-11-03T00:33:50;99874.59;;;9.58;100.00
33280;BME280;20403;43.114;12.434;2022-11-03T00:36:16;99874.50;;;9.38;100.00
33280;BME280;20403;43.114;12.434;2022-11-03T00:38:42;99871.56;;;9.54;100.00
33280;BME280;20403;43.114;12.434;2022-11-03T00:41:08;99872.94;;;9.43;100.00
33280;BME280;20403;43.114;12.434;2022-11-03T00:43:34;99867.78;;;9.57;100.00
33280;BME280;20403;43.114;12.434;2022-11-03T00:46:00;99873.94;;;9.49;100.00
33280;BME280;20403;43.114;12.434;2022-11-03T00:48:25;99866.78;;;9.64;100.00
33280;BME280;20403;43.114;12.434;2022-11-03T00:53:25;99876.44;;;9.77;100.00
33280;BME280;20403;43.114;12.434;2022-11-03T00:55:50;99873.03;;;9.77;100.00
33280;BME280;20403;43.114;12.434;2022-11-03T00:58:15;99874.78;;;9.63;100.00
33280;BME280;20403;43.114;12.434;2022-11-03T01:00:40;99869.03;;;9.81;100.00
33280;BME280;20403;43.114;12.434;2022-11-03T01:03:06;99864.44;;;9.83;100.00
33280;BME280;20403;43.114;12.434;2022-11-03T01:05:31;99862.25;;;9.93;100.00
33280;BME280;20403;43.114;12.434;2022-11-03T01:08:14;99853.00;;;9.71;100.00
33280;BME280;20403;43.114;12.434;2022-11-03T01:10:40;99863.19;;;9.65;100.00
33280;BME280;20403;43.114;12.434;2022-11-03T01:13:25;99858.00;;;9.72;100.00
33280;BME280;20403;43.114;12.434;2022-11-03T01:15:50;99862.00;;;9.75;100.00
33280;BME280;20403;43.114;12.434;2022-11-03T01:18:15;99859.25;;;9.89;100.00
33280;BME280;20403;43.114;12.434;2022-11-03T01:20:41;99862.63;;;9.83;100.00
33280;BME280;20403;43.114;12.434;2022-11-03T01:23:06;99853.22;;;9.96;100.00
33280;BME280;20403;43.114;12.434;2022-11-03T01:25:31;99853.03;;;10.04;100.00
33280;BME280;20403;43.114;12.434;2022-11-03T01:27:56;99858.84;;;10.06;100.00
33280;BME280;20403;43.114;12.434;2022-11-03T01:30:22;99858.03;;;10.19;100.00
33280;BME280;20403;43.114;12.434;2022-11-03T01:32:47;99855.84;;;10.16;100.00
33280;BME280;20403;43.114;12.434;2022-11-03T01:35:12;99844.03;;;10.13;100.00
33280;BME280;20403;43.114;12.434;2022-11-03T01:37:38;99848.22;;;10.21;100.00
33280;BME280;20403;43.114;12.434;2022-11-03T01:40:03;99837.22;;;10.32;100.00
33280;BME280;20403;43.114;12.434;2022-11-03T01:42:28;99846.69;;;10.40;100.00
33280;BME280;20403;43.114;12.434;2022-11-03T01:44:54;99846.44;;;10.21;100.00
33280;BME280;20403;43.114;12.434;2022-11-03T01:47:26;99849.44;;;10.18;100.00
33280;BME280;20403;43.114;12.434;2022-11-03T01:49:59;99850.03;;;10.14;100.00
33280;BME280;20403;43.114;12.434;2022-11-03T01:55:01;99843.25;;;10.26;100.00
33280;BME280;20403;43.114;12.434;2022-11-03T01:57:33;99842.88;;;10.29;100.00
33280;BME280;20403;43.114;12.434;2022-11-03T02:00:00;99845.25;;;10.37;100.00
33280;BME280;20403;43.114;12.434;2022-11-03T02:02:26;99843.25;;;10.46;100.00
33280;BME280;20403;43.114;12.434;2022-11-03T02:04:51;99848.47;;;10.33;100.00
33280;BME280;20403;43.114;12.434;2022-11-03T02:07:25;99840.03;;;10.44;100.00
33280;BME280;20403;43.114;12.434;2022-11-03T02:09:53;99841.66;;;10.51;100.00
33280;BME280;20403;43.114;12.434;2022-11-03T02:12:18;99844.25;;;10.45;100.00
33280;BME280;20403;43.114;12.434;2022-11-03T02:14:53;99829.41;;;10.52;100.00
33280;BME280;20403;43.114;12.434;2022-11-03T02:17:19;99837.44;;;10.37;100.00
33280;BME280;20403;43.114;12.434;2022-11-03T02:19:46;99830.22;;;10.33;100.00
33280;BME280;20403;43.114;12.434;2022-11-03T02:27:22;99827.03;;;10.30;100.00
33280;BME280;20403;43.114;12.434;2022-11-03T02:29:47;99820.78;;;10.38;100.00
33280;BME280;20403;43.114;12.434;2022-11-03T02:32:27;99824.81;;;10.34;100.00
33280;BME280;20403;43.114;12.434;2022-11-03T02:35:01;99823.00;;;10.35;100.00
33280;BME280;20403;43.114;12.434;2022-11-03T02:37:30;99814.75;;;10.18;100.00
33280;BME280;20403;43.114;12.434;2022-11-03T02:40:02;99818.16;;;10.05;100.00
33280;BME280;20403;43.114;12.434;2022-11-03T02:42:28;99815.75;;;9.97;100.00
33280;BME280;20403;43.114;12.434;2022-11-03T02:44:56;99811.94;;;9.99;100.00
33280;BME280;20403;43.114;12.434;2022-11-03T02:47:22;99822.38;;;10.19;100.00
33280;BME280;20403;43.114;12.434;2022-11-03T02:49:50;99815.78;;;10.10;100.00
33280;BME280;20403;43.114;12.434;2022-11-03T02:55:02;99817.56;;;10.16;100.00
33280;BME280;20403;43.114;12.434;2022-11-03T02:57:29;99818.56;;;10.15;100.00
33280;BME280;20403;43.114;12.434;2022-11-03T02:59:57;99817.78;;;10.15;100.00
33280;BME280;20403;43.114;12.434;2022-11-03T03:02:26;99812.94;;;10.12;100.00
33280;BME280;20403;43.114;12.434;2022-11-03T03:04:56;99814.75;;;10.11;100.00
33280;BME280;20403;43.114;12.434;2022-11-03T03:07:24;99813.97;;;10.10;100.00
33280;BME280;20403;43.114;12.434;2022-11-03T03:10:00;99812.56;;;10.08;100.00
33280;BME280;20403;43.114;12.434;2022-11-03T03:12:27;99800.94;;;10.10;100.00
33280;BME280;20403;43.114;12.434;2022-11-03T03:14:53;99808.34;;;10.07;100.00
33280;BME280;20403;43.114;12.434;2022-11-03T03:17:23;99801.13;;;9.76;100.00
33280;BME280;20403;43.114;12.434;2022-11-03T03:24:44;99800.31;;;9.82;100.00
33280;BME280;20403;43.114;12.434;2022-11-03T03:27:11;99796.69;;;9.63;100.00
33280;BME280;20403;43.114;12.434;2022-11-03T03:29:39;99793.44;;;9.54;100.00
33280;BME280;20403;43.114;12.434;2022-11-03T03:32:07;99797.50;;;9.57;100.00
33280;BME280;20403;43.114;12.434;2022-11-03T03:34:33;99790.28;;;9.65;100.00
33280;BME280;20403;43.114;12.434;2022-11-03T03:37:01;99789.69;;;9.57;100.00
33280;BME280;20403;43.114;12.434;2022-11-03T03:39:29;99788.66;;;9.58;100.00
33280;BME280;20403;43.114;12.434;2022-11-03T03:41:56;99795.25;;;9.54;100.00
33280;BME280;20403;43.114;12.434;2022-11-03T03:44:23;99800.47;;;9.60;100.00
33280;BME280;20403;43.114;12.434;2022-11-03T03:46:59;99801.66;;;9.44;100.00
33280;BME280;20403;43.114;12.434;2022-11-03T03:49:25;99794.03;;;9.50;100.00
33280;BME280;20403;43.114;12.434;2022-11-03T03:51:51;99788.03;;;9.42;100.00
33280;BME280;20403;43.114;12.434;2022-11-03T03:54:16;99796.44;;;9.44;100.00
33280;BME280;20403;43.114;12.434;2022-11-03T03:56:45;99792.59;;;9.27;100.00
33280;BME280;20403;43.114;12.434;2022-11-03T03:59:12;99791.22;;;9.31;100.00
33280;BME280;20403;43.114;12.434;2022-11-03T04:01:38;99796.41;;;9.38;100.00
33280;BME280;20403;43.114;12.434;2022-11-03T04:04:03;99794.00;;;9.23;100.00
33280;BME280;20403;43.114;12.434;2022-11-03T04:06:28;99803.16;;;9.19;100.00
33280;BME280;20403;43.114;12.434;2022-11-03T04:08:53;99806.78;;;9.18;100.00
33280;BME280;20403;43.114;12.434;2022-11-03T04:11:19;99801.19;;;9.21;100.00
33280;BME280;20403;43.114;12.434;2022-11-03T04:14:02;99803.84;;;9.34;100.00
33280;BME280;20403;43.114;12.434;2022-11-03T04:16:46;99798.84;;;9.39;100.00
33280;BME280;20403;43.114;12.434;2022-11-03T04:19:30;99805.44;;;9.42;100.00
33280;BME280;20403;43.114;12.434;2022-11-03T04:22:14;99798.44;;;9.42;100.00
33280;BME280;20403;43.114;12.434;2022-11-03T04:24:43;99799.66;;;9.53;100.00
33280;BME280;20403;43.114;12.434;2022-11-03T04:27:16;99796.47;;;9.51;100.00
33280;BME280;20403;43.114;12.434;2022-11-03T04:29:43;99798.06;;;9.59;100.00
33280;BME280;20403;43.114;12.434;2022-11-03T04:32:17;99793.66;;;9.53;100.00
33280;BME280;20403;43.114;12.434;2022-11-03T04:34:46;99798.81;;;9.33;100.00
33280;BME280;20403;43.114;12.434;2022-11-03T04:37:12;99795.97;;;9.21;100.00
33280;BME280;20403;43.114;12.434;2022-11-03T04:39:38;99794.75;;;9.17;100.00
33280;BME280;20403;43.114;12.434;2022-11-03T04:42:10;99799.22;;;9.30;100.00
33280;BME280;20403;43.114;12.434;2022-11-03T04:44:38;99803.38;;;9.24;100.00
33280;BME280;20403;43.114;12.434;2022-11-03T04:47:06;99797.19;;;9.25;100.00
33280;BME280;20403;43.114;12.434;2022-11-03T04:49:33;99799.81;;;9.25;100.00
33280;BME280;20403;43.114;12.434;2022-11-03T04:51:58;99799.63;;;9.27;100.00
33280;BME280;20403;43.114;12.434;2022-11-03T04:54:23;99795.97;;;9.21;100.00
33280;BME280;20403;43.114;12.434;2022-11-03T04:56:49;99803.16;;;9.12;100.00
33280;BME280;20403;43.114;12.434;2022-11-03T04:59:14;99799.34;;;9.15;100.00
33280;BME280;20403;43.114;12.434;2022-11-03T05:01:41;99801.34;;;9.06;100.00
33280;BME280;20403;43.114;12.434;2022-11-03T05:04:10;99799.09;;;9.03;100.00
33280;BME280;20403;43.114;12.434;2022-11-03T05:06:36;99798.94;;;9.11;100.00
33280;BME280;20403;43.114;12.434;2022-11-03T05:09:15;99796.94;;;9.07;100.00
33280;BME280;20403;43.114;12.434;2022-11-03T05:11:43;99801.09;;;8.94;100.00
33280;BME280;20403;43.114;12.434;2022-11-03T05:16:39;99797.88;;;8.92;100.00
33280;BME280;20403;43.114;12.434;2022-11-03T05:19:09;99796.69;;;8.95;100.00
33280;BME280;20403;43.114;12.434;2022-11-03T05:21:36;99797.63;;;8.80;100.00
33280;BME280;20403;43.114;12.434;2022-11-03T05:24:02;99791.22;;;8.83;100.00
33280;BME280;20403;43.114;12.434;2022-11-03T05:26:33;99800.31;;;8.66;100.00
33280;BME280;20403;43.114;12.434;2022-11-03T05:31:32;99798.13;;;8.62;100.00
33280;BME280;20403;43.114;12.434;2022-11-03T05:33:59;99796.09;;;8.58;100.00
33280;BME280;20403;43.114;12.434;2022-11-03T05:36:26;99802.16;;;8.72;100.00
33280;BME280;20403;43.114;12.434;2022-11-03T05:38:53;99803.50;;;8.61;100.00
33280;BME280;20403;43.114;12.434;2022-11-03T05:41:21;99808.88;;;8.59;100.00
33280;BME280;20403;43.114;12.434;2022-11-03T05:43:53;99813.66;;;8.56;100.00
33280;BME280;20403;43.114;12.434;2022-11-03T05:46:19;99813.59;;;8.43;100.00
33280;BME280;20403;43.114;12.434;2022-11-03T05:48:45;99809.44;;;8.48;100.00
33280;BME280;20403;43.114;12.434;2022-11-03T05:51:29;99809.22;;;8.50;100.00
33280;BME280;20403;43.114;12.434;2022-11-03T05:53:56;99801.59;;;8.41;100.00
33280;BME280;20403;43.114;12.434;2022-11-03T05:56:23;99814.75;;;8.40;100.00
33280;BME280;20403;43.114;12.434;2022-11-03T05:58:49;99816.34;;;8.41;100.00
33280;BME280;20403;43.114;12.434;2022-11-03T06:01:33;99824.78;;;8.43;100.00
33280;BME280;20403;43.114;12.434;2022-11-03T06:04:03;99826.44;;;8.51;100.00
33280;BME280;20403;43.114;12.434;2022-11-03T06:06:36;99821.56;;;8.41;100.00
33280;BME280;20403;43.114;12.434;2022-11-03T06:09:04;99823.22;;;8.49;100.00
33280;BME280;20403;43.114;12.434;2022-11-03T06:11:35;99828.22;;;8.50;100.00
33280;BME280;20403;43.114;12.434;2022-11-03T06:14:00;99831.78;;;8.43;100.00
33280;BME280;20403;43.114;12.434;2022-11-03T06:19:01;99826.13;;;8.39;100.00
33280;BME280;20403;43.114;12.434;2022-11-03T06:21:34;99834.38;;;8.43;100.00
33280;BME280;20403;43.114;12.434;2022-11-03T06:23:59;99825.03;;;8.48;100.00
33280;BME280;20403;43.114;12.434;2022-11-03T06:26:25;99825.47;;;8.58;100.00
33280;BME280;20403;43.114;12.434;2022-11-03T06:28:51;99827.56;;;8.70;100.00
33280;BME280;20403;43.114;12.434;2022-11-03T06:31:19;99831.78;;;8.77;100.00
33280;BME280;20403;43.114;12.434;2022-11-03T06:33:45;99825.41;;;8.80;100.00
33280;BME280;20403;43.114;12.434;2022-11-03T06:36:18;99834.00;;;8.74;100.00
33280;BME280;20403;43.114;12.434;2022-11-03T06:38:45;99834.59;;;8.76;100.00
33280;BME280;20403;43.114;12.434;2022-11-03T06:41:13;99829.41;;;8.76;100.00
33280;BME280;20403;43.114;12.434;2022-11-03T06:43:42;99838.41;;;8.80;100.00
33280;BME280;20403;43.114;12.434;2022-11-03T06:46:11;99842.97;;;8.71;100.00
33280;BME280;20403;43.114;12.434;2022-11-03T06:48:37;99844.03;;;8.83;100.00
33280;BME280;20403;43.114;12.434;2022-11-03T06:51:03;99840.69;;;8.90;100.00
33280;BME280;20403;43.114;12.434;2022-11-03T06:53:38;99845.56;;;9.06;100.00
33280;BME280;20403;43.114;12.434;2022-11-03T06:56:06;99845.16;;;9.09;100.00
33280;BME280;20403;43.114;12.434;2022-11-03T06:58:35;99848.88;;;9.35;100.00
33280;BME280;20403;43.114;12.434;2022-11-03T07:01:02;99845.34;;;9.56;100.00
33280;BME280;20403;43.114;12.434;2022-11-03T07:03:33;99853.63;;;9.99;100.00
33280;BME280;20403;43.114;12.434;2022-11-03T07:06:06;99851.06;;;10.39;100.00
33280;BME280;20403;43.114;12.434;2022-11-03T07:08:55;99850.19;;;10.85;100.00
33280;BME280;20403;43.114;12.434;2022-11-03T07:11:29;99844.66;;;11.20;100.00
33280;BME280;20403;43.114;12.434;2022-11-03T07:13:56;99845.41;;;11.34;100.00
33280;BME280;20403;43.114;12.434;2022-11-03T07:18:49;99843.50;;;11.54;100.00
33280;BME280;20403;43.114;12.434;2022-11-03T07:23:46;99833.81;;;11.62;100.00
33280;BME280;20403;43.114;12.434;2022-11-03T07:26:11;99845.03;;;11.69;100.00
33280;BME280;20403;43.114;12.434;2022-11-03T07:28:36;99841.53;;;11.82;100.00
33280;BME280;20403;43.114;12.434;2022-11-03T07:31:36;99841.31;;;11.90;100.00
33280;BME280;20403;43.114;12.434;2022-11-03T07:33:55;99832.53;;;12.09;100.00
33280;BME280;20403;43.114;12.434;2022-11-03T07:36:22;99838.56;;;12.35;100.00
33280;BME280;20403;43.114;12.434;2022-11-03T07:38:49;99831.38;;;12.49;100.00
33280;BME280;20403;43.114;12.434;2022-11-03T07:41:19;99828.78;;;12.67;100.00
33280;BME280;20403;43.114;12.434;2022-11-03T07:43:58;99830.97;;;12.70;100.00
33280;BME280;20403;43.114;12.434;2022-11-03T07:46:23;99833.50;;;12.58;100.00
33280;BME280;20403;43.114;12.434;2022-11-03T07:48:56;99836.34;;;12.57;100.00
33280;BME280;20403;43.114;12.434;2022-11-03T07:53:55;99826.97;;;12.68;100.00
33280;BME280;20403;43.114;12.434;2022-11-03T08:01:33;99826.81;;;13.18;100.00
33280;BME280;20403;43.114;12.434;2022-11-03T08:04:00;99821.09;;;13.28;100.00
33280;BME280;20403;43.114;12.434;2022-11-03T08:06:26;99816.34;;;13.18;100.00
33280;BME280;20403;43.114;12.434;2022-11-03T08:08:51;99813.28;;;13.39;100.00
33280;BME280;20403;43.114;12.434;2022-11-03T08:11:16;99819.88;;;13.42;100.00
33280;BME280;20403;43.114;12.434;2022-11-03T08:13:41;99817.97;;;13.49;100.00
33280;BME280;20403;43.114;12.434;2022-11-03T08:16:07;99817.03;;;13.74;100.00
33280;BME280;20403;43.114;12.434;2022-11-03T08:18:32;99809.41;;;13.84;100.00
33280;BME280;20403;43.114;12.434;2022-11-03T08:20:57;99808.97;;;13.87;100.00
33280;BME280;20403;43.114;12.434;2022-11-03T08:23:23;99811.91;;;13.91;100.00
33280;BME280;20403;43.114;12.434;2022-11-03T08:25:48;99806.25;;;14.05;100.00
33280;BME280;20403;43.114;12.434;2022-11-03T08:28:13;99808.88;;;14.17;100.00
33280;BME280;20403;43.114;12.434;2022-11-03T08:30:38;99814.50;;;14.33;100.00
33280;BME280;20403;43.114;12.434;2022-11-03T08:33:04;99811.72;;;14.16;100.00
33280;BME280;20403;43.114;12.434;2022-11-03T08:35:29;99799.50;;;13.98;100.00
33280;BME280;20403;43.114;12.434;2022-11-03T08:37:54;99798.03;;;14.14;100.00
33280;BME280;20403;43.114;12.434;2022-11-03T08:40:20;99801.34;;;14.21;100.00
33280;BME280;20403;43.114;12.434;2022-11-03T08:42:45;99794.16;;;14.16;100.00
33280;BME280;20403;43.114;12.434;2022-11-03T08:45:10;99794.84;;;14.12;100.00
33280;BME280;20403;43.114;12.434;2022-11-03T08:47:36;99794.06;;;14.11;100.00
33280;BME280;20403;43.114;12.434;2022-11-03T08:50:01;99795.31;;;13.97;100.00
33280;BME280;20403;43.114;12.434;2022-11-03T08:52:27;99795.19;;;13.92;100.00
33280;BME280;20403;43.114;12.434;2022-11-03T08:54:52;99793.34;;;13.92;100.00
33280;BME280;20403;43.114;12.434;2022-11-03T08:57:17;99789.00;;;13.98;100.00
33280;BME280;20403;43.114;12.434;2022-11-03T08:59:42;99785.28;;;14.05;100.00
33280;BME280;20403;43.114;12.434;2022-11-03T09:02:08;99784.38;;;14.23;100.00
33280;BME280;20403;43.114;12.434;2022-11-03T09:04:33;99780.50;;;14.38;100.00
33280;BME280;20403;43.114;12.434;2022-11-03T09:06:58;99777.25;;;14.71;100.00
33280;BME280;20403;43.114;12.434;2022-11-03T09:09:24;99768.97;;;15.03;100.00
33280;BME280;20403;43.114;12.434;2022-11-03T09:11:49;99774.31;;;15.37;100.00
33280;BME280;20403;43.114;12.434;2022-11-03T09:14:14;99760.63;;;15.68;100.00
33280;BME280;20403;43.114;12.434;2022-11-03T09:16:39;99757.34;;;15.90;100.00
33280;BME280;20403;43.114;12.434;2022-11-03T09:19:05;99762.09;;;15.93;100.00
33280;BME280;20403;43.114;12.434;2022-11-03T09:21:30;99763.13;;;15.92;100.00
33280;BME280;20403;43.114;12.434;2022-11-03T09:23:55;99758.72;;;16.14;100.00
33280;BME280;20403;43.114;12.434;2022-11-03T09:26:23;99756.59;;;16.50;100.00
33280;BME280;20403;43.114;12.434;2022-11-03T09:28:48;99751.47;;;16.66;100.00
33280;BME280;20403;43.114;12.434;2022-11-03T09:31:14;99754.56;;;16.79;100.00
33280;BME280;20403;43.114;12.434;2022-11-03T09:33:39;99752.13;;;16.73;100.00
33280;BME280;20403;43.114;12.434;2022-11-03T09:36:05;99748.19;;;16.75;100.00
33280;BME280;20403;43.114;12.434;2022-11-03T09:38:30;99755.66;;;16.62;100.00
33280;BME280;20403;43.114;12.434;2022-11-03T09:40:55;99755.03;;;16.76;100.00
33280;BME280;20403;43.114;12.434;2022-11-03T09:43:20;99743.84;;;16.86;100.00
33280;BME280;20403;43.114;12.434;2022-11-03T09:45:46;99736.63;;;16.98;100.00
33280;BME280;20403;43.114;12.434;2022-11-03T09:48:11;99737.66;;;17.25;100.00
33280;BME280;20403;43.114;12.434;2022-11-03T09:50:37;99731.75;;;17.12;100.00
33280;BME280;20403;43.114;12.434;2022-11-03T09:53:03;99728.97;;;17.24;100.00
33280;BME280;20403;43.114;12.434;2022-11-03T09:55:28;99732.63;;;16.96;100.00
33280;BME280;20403;43.114;12.434;2022-11-03T09:57:58;99722.34;;;17.21;100.00
33280;BME280;20403;43.114;12.434;2022-11-03T10:00:24;99729.94;;;17.45;100.00
33280;BME280;20403;43.114;12.434;2022-11-03T10:02:51;99717.22;;;17.42;100.00
33280;BME280;20403;43.114;12.434;2022-11-03T10:05:23;99716.78;;;17.82;100.00
33280;BME280;20403;43.114;12.434;2022-11-03T10:07:50;99713.94;;;17.89;100.00
33280;BME280;20403;43.114;12.434;2022-11-03T10:10:16;99699.69;;;17.90;100.00
33280;BME280;20403;43.114;12.434;2022-11-03T10:12:42;99696.16;;;17.79;100.00
33280;BME280;20403;43.114;12.434;2022-11-03T10:15:12;99696.56;;;17.61;100.00
33280;BME280;20403;43.114;12.434;2022-11-03T10:17:38;99682.28;;;17.57;100.00
33280;BME280;20403;43.114;12.434;2022-11-03T10:20:04;99684.91;;;17.89;100.00
33280;BME280;20403;43.114;12.434;2022-11-03T10:22:30;99682.53;;;17.93;100.00
33280;BME280;20403;43.114;12.434;2022-11-03T10:27:39;99664.56;;;18.53;100.00
33280;BME280;20403;43.114;12.434;2022-11-03T10:30:08;99657.97;;;18.45;100.00
33280;BME280;20403;43.114;12.434;2022-11-03T10:32:34;99653.94;;;18.32;100.00
33280;BME280;20403;43.114;12.434;2022-11-03T10:35:00;99645.69;;;18.08;100.00
33280;BME280;20403;43.114;12.434;2022-11-03T10:37:25;99644.09;;;18.07;100.00
33280;BME280;20403;43.114;12.434;2022-11-03T10:39:52;99646.97;;;18.00;100.00
33280;BME280;20403;43.114;12.434;2022-11-03T10:44:43;99643.56;;;18.05;100.00
33280;BME280;20403;43.114;12.434;2022-11-03T10:47:09;99651.28;;;18.22;100.00
33280;BME280;20403;43.114;12.434;2022-11-03T10:49:46;99642.41;;;18.54;100.00
33280;BME280;20403;43.114;12.434;2022-11-03T10:52:22;99635.88;;;18.82;100.00
33280;BME280;20403;43.114;12.434;2022-11-03T10:54:48;99631.66;;;18.96;100.00
33280;BME280;20403;43.114;12.434;2022-11-03T10:57:14;99632.66;;;18.69;100.00
33280;BME280;20403;43.114;12.434;2022-11-03T10:59:40;99628.22;;;18.80;100.00
33280;BME280;20403;43.114;12.434;2022-11-03T11:02:16;99624.53;;;18.92;100.00
33280;BME280;20403;43.114;12.434;2022-11-03T11:04:42;99612.38;;;18.91;100.00
33280;BME280;20403;43.114;12.434;2022-11-03T11:07:28;99610.28;;;18.93;100.00
33280;BME280;20403;43.114;12.434;2022-11-03T11:09:55;99603.09;;;19.39;100.00
33280;BME280;20403;43.114;12.434;2022-11-03T11:12:21;99608.06;;;19.56;100.00
33280;BME280;20403;43.114;12.434;2022-11-03T11:20:18;99592.19;;;19.66;100.00
33280;BME280;20403;43.114;12.434;2022-11-03T11:22:48;99581.88;;;19.70;100.00
33280;BME280;20403;43.114;12.434;2022-11-03T11:25:14;99586.53;;;19.99;100.00
33280;BME280;20403;43.114;12.434;2022-11-03T11:33:00;99569.63;;;19.94;100.00
33280;BME280;20403;43.114;12.434;2022-11-03T11:37:51;99569.75;;;20.19;100.00
33280;BME280;20403;43.114;12.434;2022-11-03T11:48:15;99550.97;;;20.60;100.00
33280;BME280;20403;43.114;12.434;2022-11-03T11:50:41;99548.25;;;20.70;100.00
33280;BME280;20403;43.114;12.434;2022-11-03T11:53:10;99543.41;;;20.77;100.00
33280;BME280;20403;43.114;12.434;2022-11-03T11:55:47;99541.41;;;20.93;100.00
33280;BME280;20403;43.114;12.434;2022-11-03T11:58:16;99544.78;;;21.04;100.00
33280;BME280;20403;43.114;12.434;2022-11-03T12:03:37;99529.84;;;20.84;100.00
33280;BME280;20403;43.114;12.434;2022-11-03T12:06:04;99526.69;;;20.82;100.00
33280;BME280;20403;43.114;12.434;2022-11-03T12:08:29;99529.31;;;20.87;100.00
33280;BME280;20403;43.114;12.434;2022-11-03T12:10:59;99523.09;;;20.96;100.00
33280;BME280;20403;43.114;12.434;2022-11-03T12:13:44;99514.53;;;21.05;100.00
33280;BME280;20403;43.114;12.434;2022-11-03T12:16:30;99508.97;;;21.06;100.00
33280;BME280;20403;43.114;12.434;2022-11-03T12:18:56;99503.78;;;20.91;100.00
33280;BME280;20403;43.114;12.434;2022-11-03T12:26:50;99494.84;;;21.11;100.00
33280;BME280;20403;43.114;12.434;2022-11-03T12:29:15;99491.09;;;21.17;100.00
33280;BME280;20403;43.114;12.434;2022-11-03T12:31:41;99486.44;;;21.04;100.00
33280;BME280;20403;43.114;12.434;2022-11-03T12:34:06;99478.75;;;21.02;100.00
33280;BME280;20403;43.114;12.434;2022-11-03T12:36:31;99477.41;;;21.05;100.00
33280;BME280;20403;43.114;12.434;2022-11-03T12:38:56;99468.94;;;21.03;100.00
33280;BME280;20403;43.114;12.434;2022-11-03T12:41:22;99456.66;;;21.12;100.00
33280;BME280;20403;43.114;12.434;2022-11-03T12:43:50;99462.47;;;21.14;100.00
33280;BME280;20403;43.114;12.434;2022-11-03T12:46:16;99455.53;;;20.94;100.00
33280;BME280;20403;43.114;12.434;2022-11-03T12:48:41;99451.91;;;20.85;100.00
33280;BME280;20403;43.114;12.434;2022-11-03T12:51:09;99450.56;;;20.87;100.00
33280;BME280;20403;43.114;12.434;2022-11-03T12:53:34;99453.59;;;20.99;100.00
33280;BME280;20403;43.114;12.434;2022-11-03T12:55:59;99442.06;;;21.14;100.00
33280;BME280;20403;43.114;12.434;2022-11-03T12:58:24;99438.94;;;21.07;100.00
33280;BME280;20403;43.114;12.434;2022-11-03T13:00:50;99433.41;;;20.80;100.00
33280;BME280;20403;43.114;12.434;2022-11-03T13:03:15;99434.28;;;20.70;100.00
33280;BME280;20403;43.114;12.434;2022-11-03T13:05:41;99435.78;;;20.47;100.00
33280;BME280;20403;43.114;12.434;2022-11-03T13:08:06;99418.44;;;20.30;100.00
33280;BME280;20403;43.114;12.434;2022-11-03T13:10:31;99418.06;;;20.13;100.00
33280;BME280;20403;43.114;12.434;2022-11-03T13:12:56;99419.16;;;20.07;100.00
33280;BME280;20403;43.114;12.434;2022-11-03T13:15:22;99413.88;;;20.07;100.00
33280;BME280;20403;43.114;12.434;2022-11-03T13:17:47;99407.38;;;20.23;100.00
33280;BME280;20403;43.114;12.434;2022-11-03T13:20:12;99408.22;;;20.19;100.00
33280;BME280;20403;43.114;12.434;2022-11-03T13:22:41;99400.91;;;20.10;100.00
33280;BME280;20403;43.114;12.434;2022-11-03T13:25:06;99399.81;;;20.11;100.00
33280;BME280;20403;43.114;12.434;2022-11-03T13:27:32;99396.44;;;20.01;100.00
33280;BME280;20403;43.114;12.434;2022-11-03T13:29:58;99387.75;;;19.95;100.00
33280;BME280;20403;43.114;12.434;2022-11-03T13:32:23;99392.97;;;20.05;100.00
33280;BME280;20403;43.114;12.434;2022-11-03T13:34:48;99386.16;;;20.28;100.00
33280;BME280;20403;43.114;12.434;2022-11-03T13:37:14;99395.97;;;20.28;100.00
33280;BME280;20403;43.114;12.434;2022-11-03T13:39:39;99400.53;;;20.22;100.00
33280;BME280;20403;43.114;12.434;2022-11-03T13:42:05;99387.66;;;20.05;100.00
33280;BME280;20403;43.114;12.434;2022-11-03T13:44:30;99392.59;;;20.17;100.00
33280;BME280;20403;43.114;12.434;2022-11-03T13:46:55;99388.50;;;20.01;100.00
33280;BME280;20403;43.114;12.434;2022-11-03T13:49:20;99398.81;;;20.02;100.00
33280;BME280;20403;43.114;12.434;2022-11-03T13:51:46;99395.06;;;20.08;100.00
33280;BME280;20403;43.114;12.434;2022-11-03T13:54:11;99387.28;;;20.22;100.00
33280;BME280;20403;43.114;12.434;2022-11-03T13:56:37;99386.91;;;20.34;100.00
33280;BME280;20403;43.114;12.434;2022-11-03T13:59:02;99388.28;;;20.26;100.00